Belleair, FL (33756)

3:57 AM EDT on September 04, 2015 (GMT -0400)
S Betty Lane | | Change Station
CLOSE
Current Station
Personal Weather Station
Location: Clearwater, FL
Elevation: 18 ft
Nearby Weather Stations

Elev 18 ft 27.96 °N, 82.78 °W | Updated 7 seconds ago

Clear
Clear
82.6 °F
Feels Like 92 °F
N
0.0
Wind Variable Wind from NW
Gusts 1.0 mph

Today
High -- | Low -- °F
--% Chance of Precip.
Yesterday
High -- | Low -- °F
Precip. -- in
7:11 AM 7:48 PM
Waning Gibbous, 62% visible
Pressure 29.94 in
Visibility 10.0 miles
Clouds Clear
Heat Index 92 °F
Dew Point 78 °F
Humidity 85%
Rainfall 0.00 in
Snow Depth Not available.
UV 0 out of 12
Pollen 4.20 out of 12
Air Quality Not available.
Flu Activity Not available.
METAR KPIE 040753Z AUTO 00000KT 10SM CLR 26/24 A2993 RMK AO2 SLP136 T02610239
Pressure 29.94 in
Visibility 10.0 miles
Clouds Clear
Heat Index 92 °F
Dew Point 78 °F
Humidity 85%
Rainfall 0.00 in
Snow Depth Not available.
UV 0 out of 12
Pollen 4.20 out of 12
Air Quality Not available.
Flu Activity Not available.
METAR KPIE 040753Z AUTO 00000KT 10SM CLR 26/24 A2993 RMK AO2 SLP136 T02610239

10-Day Weather Forecast

×

Almanac

Astronomy

Sep. 04, 2015 Rise Set
Actual Time
Civil Twilight
Nautical Twilight
Astronomical Twilight
Moon
Length of Visible Light
Length of Day
Tomorrow will be .
, % of the Moon is Illuminated

Today's Extremes

State Highs State Lows

Community

WunderPhotos

Upload Photos

1,852,132 photos uploaded!

WunderBlogs® & News

Nearby

Air Quality

  Air Quality AQ Index Pollutant
Not available.

Snow Depth

Station Depth Elevation

Earthquake Activity

City Distance Mag. Time & Date
Minimum magnitude displayed is 2.5.

Coastal Water Temperatures

Place Temperature

Stations

Nearby Weather Stations

Station Location Temp. Windchill Dew Point Humidity Wind Precip. Elev Updated Type